Аэропорт: Игнатьево. Благовещенск

ICAO: UHBB

METAR:
2020-10-24 05:30:00
UHBB 240530Z 36010G15MPS CAVOK 06/M10 Q1007 R36/090060 NOSIG RMK QFE738/0984
METAR:
2020-10-24 01:48:00
TAF UHBB 240148Z 2403/2503 36010G15MPS 9999 SCT030 BECMG 2408/2410 34006G11MPS